Time;durP1;ratioP1;P1;durP2;ratioP2;P2;SDS_P1;SDS_P2;PMS_P1;PMS_P2;Temp;Humidity;BMP_temperature;BMP_pressure;BME280_temperature;BME280_humidity;BME280_pressure;Samples;Min_cycle;Max_cycle;Signal;HPM_P1;HPM_P2
2022/12/22 03:25:52;;;;;;;;;3.00;3.00;;;;;12.40;85.71;99758.28;5033666;28;45371;-69
2022/12/22 03:28:18;;;;;;;;;5.00;3.00;;;;;12.33;85.41;99743.78;5021665;28;45270;-70
2022/12/22 03:30:43;;;;;;;;;4.25;2.75;;;;;12.35;85.76;99743.72;5042691;28;46467;-70
2022/12/22 03:33:08;;;;;;;;;2.00;2.00;;;;;12.32;85.45;99747.38;5038138;28;45217;-69
2022/12/22 03:35:34;;;;;;;;;2.00;2.00;;;;;12.34;85.45;99755.19;5025719;28;45306;-69
2022/12/22 03:38:02;;;;;;;;;1.00;1.00;;;;;12.17;85.43;99727.22;5015791;28;45313;-70
2022/12/22 03:40:30;;;;;;;;;2.00;2.00;;;;;12.29;85.64;99755.47;5014122;28;45634;-68
2022/12/22 03:48:24;;;;;;;;;2.75;2.00;;;;;12.30;85.07;99767.72;5015718;28;45434;-69
2022/12/22 03:50:49;;;;;;;;;3.00;1.25;;;;;12.29;84.63;99760.75;5015041;28;46215;-69
2022/12/22 03:53:14;;;;;;;;;2.00;2.00;;;;;12.25;84.47;99756.59;5031438;28;45480;-69
2022/12/22 03:55:40;;;;;;;;;2.00;2.00;;;;;12.26;84.65;99734.56;5035419;28;45428;-69
2022/12/22 03:58:05;;;;;;;;;2.75;2.75;;;;;12.25;84.17;99746.03;5037670;28;45463;-68
2022/12/22 04:00:30;;;;;;;;;3.00;3.00;;;;;12.25;83.70;99754.81;5018363;28;47091;-69
2022/12/22 04:02:59;;;;;;;;;6.50;2.75;;;;;12.27;83.37;99759.97;5020280;28;45350;-68
2022/12/22 04:05:25;;;;;;;;;3.00;2.25;;;;;12.28;83.04;99745.84;5027761;28;45204;-69
2022/12/22 04:07:50;;;;;;;;;2.50;2.00;;;;;12.09;83.14;99712.69;5015572;28;45160;-69
2022/12/22 04:12:59;;;;;;;;;1.00;1.00;;;;;12.24;83.59;99750.50;5034885;28;45368;-71
2022/12/22 04:15:27;;;;;;;;;2.00;2.00;;;;;12.23;82.93;99767.25;5017625;28;45368;-70
2022/12/22 04:17:53;;;;;;;;;1.00;1.00;;;;;12.18;83.33;99769.28;5035196;28;45614;-69
2022/12/22 04:20:20;;;;;;;;;2.00;2.00;;;;;12.20;83.23;99783.25;5034703;28;45419;-69
2022/12/22 04:22:46;;;;;;;;;2.50;1.50;;;;;12.19;83.30;99801.78;5037504;28;45499;-72
2022/12/22 04:25:13;;;;;;;;;1.25;1.25;;;;;12.16;82.97;99791.41;5038621;28;45300;-70
2022/12/22 04:27:39;;;;;;;;;1.25;1.25;;;;;12.21;82.89;99810.44;5019829;28;45495;-69
2022/12/22 04:30:05;;;;;;;;;2.00;2.00;;;;;12.21;83.01;99813.09;5037770;28;46288;-69
2022/12/22 04:32:31;;;;;;;;;2.00;2.00;;;;;12.18;82.62;99829.09;5037856;28;45277;-69
2022/12/22 04:34:56;;;;;;;;;2.50;2.25;;;;;12.20;82.09;99829.84;5038377;28;45392;-72
2022/12/22 04:37:21;;;;;;;;;1.00;1.00;;;;;12.20;82.46;99833.34;5020164;28;45538;-69
2022/12/22 04:39:47;;;;;;;;;1.00;1.00;;;;;12.26;81.85;99851.44;5037589;28;60014;-69
2022/12/22 04:42:12;;;;;;;;;0.75;0.75;;;;;12.29;81.81;99871.50;5038120;28;45638;-71
2022/12/22 04:44:37;;;;;;;;;1.00;1.00;;;;;12.32;82.01;99875.75;5037215;28;45823;-69
2022/12/22 04:47:03;;;;;;;;;1.50;0.75;;;;;12.31;81.63;99874.88;5038205;28;45354;-70
2022/12/22 04:49:28;;;;;;;;;0.00;0.00;;;;;12.29;81.93;99874.13;5038273;28;46103;-69
2022/12/22 04:51:53;;;;;;;;;1.50;1.50;;;;;12.31;81.45;99895.16;5037781;28;45343;-72
2022/12/22 04:54:19;;;;;;;;;1.25;1.25;;;;;12.33;81.68;99904.66;5019722;28;45452;-72
2022/12/22 04:56:44;;;;;;;;;0.00;0.00;;;;;12.32;81.46;99910.03;5037505;28;45317;-72
2022/12/22 04:59:09;;;;;;;;;1.00;1.00;;;;;12.29;81.19;99897.03;5037624;28;45405;-70
2022/12/22 05:01:36;;;;;;;;;1.00;1.00;;;;;12.31;81.26;99917.06;5037547;28;47515;-72
2022/12/22 05:04:01;;;;;;;;;0.25;0.25;;;;;12.30;80.78;99918.03;5021114;28;45386;-72
2022/12/22 05:06:27;;;;;;;;;0.00;0.00;;;;;12.29;81.21;99934.78;5018106;28;45461;-71
2022/12/22 05:08:52;;;;;;;;;1.00;1.00;;;;;12.07;81.25;99903.50;4999389;28;46968;-71
2022/12/22 05:11:17;;;;;;;;;0.00;0.00;;;;;12.19;81.67;99937.09;5018025;28;51193;-71
2022/12/22 05:13:43;;;;;;;;;1.00;1.00;;;;;12.25;81.29;99949.06;5019358;28;45267;-71
2022/12/22 05:16:12;;;;;;;;;2.00;0.00;;;;;12.21;81.38;99955.47;5024447;28;45514;-71
2022/12/22 05:18:38;;;;;;;;;0.00;0.00;;;;;12.19;81.29;99963.44;5036018;28;46190;-70
2022/12/22 05:21:11;;;;;;;;;0.00;0.00;;;;;12.14;81.45;99965.50;5005229;28;45512;-70
2022/12/22 05:23:36;;;;;;;;;0.75;0.75;;;;;12.10;81.38;99964.84;5036787;28;45291;-69
2022/12/22 05:26:02;;;;;;;;;0.00;0.00;;;;;12.12;81.15;99977.91;5020254;28;45570;-71
2022/12/22 05:28:28;;;;;;;;;0.00;0.00;;;;;12.10;81.60;99963.97;5041457;28;46411;-71
2022/12/22 05:30:54;;;;;;;;;0.00;0.00;;;;;12.10;81.08;99977.16;5019793;28;45350;-69
2022/12/22 05:33:20;;;;;;;;;0.75;0.75;;;;;12.00;80.88;99966.28;5018179;28;45288;-70
2022/12/22 05:35:45;;;;;;;;;1.00;1.00;;;;;12.08;80.64;99979.88;5036097;28;45384;-71
2022/12/22 05:38:11;;;;;;;;;0.00;0.00;;;;;12.10;80.70;99993.84;5029744;28;46106;-69
2022/12/22 05:40:36;;;;;;;;;0.00;0.00;;;;;12.10;80.80;99990.34;5017268;28;45329;-70
2022/12/22 05:43:01;;;;;;;;;0.00;0.00;;;;;12.07;80.36;99988.72;5017173;28;49173;-70
2022/12/22 05:45:27;;;;;;;;;0.00;0.00;;;;;12.11;80.40;99992.91;5018020;28;45398;-69
2022/12/22 05:47:52;;;;;;;;;0.25;0.25;;;;;12.08;80.40;99993.06;5033042;28;60361;-71
2022/12/22 05:50:24;;;;;;;;;0.00;0.00;;;;;12.03;80.15;100002.16;5019185;28;45352;-70
2022/12/22 05:52:49;;;;;;;;;0.00;0.00;;;;;12.04;80.62;100006.50;5037015;28;45792;-71
2022/12/22 05:55:15;;;;;;;;;0.00;0.00;;;;;12.03;80.40;100021.47;5018155;28;45890;-70
2022/12/22 05:57:41;;;;;;;;;0.00;0.00;;;;;12.02;80.39;100016.28;5037227;28;46435;-69
2022/12/22 06:00:13;;;;;;;;;0.00;0.00;;;;;12.03;80.78;100026.75;5019044;28;45341;-70
2022/12/22 06:02:39;;;;;;;;;0.00;0.00;;;;;12.00;80.59;100019.00;5037091;28;45496;-71
2022/12/22 06:05:05;;;;;;;;;0.00;0.00;;;;;12.00;80.85;100019.00;5037306;28;45273;-70
2022/12/22 06:07:30;;;;;;;;;0.00;0.00;;;;;12.04;80.86;100033.72;5002835;28;46631;-70
2022/12/22 06:09:56;;;;;;;;;0.00;0.00;;;;;12.05;81.18;100045.09;5016936;28;45495;-70
2022/12/22 06:12:21;;;;;;;;;1.00;1.00;;;;;11.99;81.39;100043.63;5033256;28;45389;-70
2022/12/22 06:14:47;;;;;;;;;0.00;0.00;;;;;12.00;81.73;100045.38;5037531;28;45370;-71
2022/12/22 06:17:12;;;;;;;;;0.00;0.00;;;;;11.96;82.74;100042.00;5036285;28;46215;-70
2022/12/22 06:19:37;;;;;;;;;0.00;0.00;;;;;11.97;83.16;100051.63;5020021;28;57178;-70
2022/12/22 06:22:03;;;;;;;;;0.00;0.00;;;;;11.95;83.73;100053.47;5017108;28;45330;-71
2022/12/22 06:24:28;;;;;;;;;0.00;0.00;;;;;11.95;84.30;100058.75;5016989;28;45263;-71
2022/12/22 06:26:54;;;;;;;;;0.00;0.00;;;;;11.91;85.27;100069.56;5016678;28;46002;-70
2022/12/22 06:29:19;;;;;;;;;0.00;0.00;;;;;11.84;86.00;100069.91;5016920;28;45218;-71
2022/12/22 06:31:44;;;;;;;;;0.00;0.00;;;;;11.75;86.84;100072.16;5016914;28;45349;-71
2022/12/22 06:34:10;;;;;;;;;0.00;0.00;;;;;11.71;87.80;100083.78;5032292;28;45436;-70
2022/12/22 06:36:37;;;;;;;;;0.00;0.00;;;;;11.60;88.74;100092.25;5036741;28;46301;-70
2022/12/22 06:39:03;;;;;;;;;0.00;0.00;;;;;11.51;89.88;100090.97;5019619;28;45215;-70
2022/12/22 06:44:11;;;;;;;;;0.25;0.25;;;;;11.34;91.46;100097.09;5038920;28;45270;-70
2022/12/22 06:46:37;;;;;;;;;4.00;4.00;;;;;11.24;92.55;100112.53;5038204;28;52242;-71
2022/12/22 06:49:03;;;;;;;;;0.00;0.00;;;;;11.19;92.95;100111.91;5038340;28;45358;-72
2022/12/22 06:51:28;;;;;;;;;0.00;0.00;;;;;11.08;94.03;100105.38;5036315;28;45301;-71
2022/12/22 06:53:53;;;;;;;;;1.00;1.00;;;;;11.15;94.36;100111.19;5036500;28;45421;-71
2022/12/22 06:56:19;;;;;;;;;2.50;2.00;;;;;11.14;94.92;100109.47;5040276;28;45453;-72
2022/12/22 06:58:44;;;;;;;;;2.00;2.00;;;;;11.14;95.71;100111.28;5036425;28;45388;-71
2022/12/22 07:01:09;;;;;;;;;2.00;2.00;;;;;11.14;95.44;100112.13;5019836;28;45332;-72
2022/12/22 07:03:35;;;;;;;;;1.00;1.00;;;;;11.18;95.61;100126.00;5030354;28;45265;-72
2022/12/22 07:06:00;;;;;;;;;1.00;1.00;;;;;11.17;96.14;100116.38;5035646;28;46091;-71
2022/12/22 07:08:25;;;;;;;;;3.50;3.50;;;;;11.19;95.42;100128.53;5034797;28;50431;-72
2022/12/22 07:11:00;;;;;;;;;2.50;2.50;;;;;11.17;96.06;100124.28;5016774;28;45392;-73
2022/12/22 07:13:30;;;;;;;;;3.50;3.50;;;;;11.17;95.99;100130.38;4997946;28;45329;-72
2022/12/22 07:15:56;;;;;;;;;4.50;4.50;;;;;11.11;95.70;100120.16;5014209;28;46761;-70
2022/12/22 07:18:21;;;;;;;;;6.50;5.50;;;;;11.16;95.75;100133.94;5021086;28;45215;-72
2022/12/22 07:20:46;;;;;;;;;4.25;4.00;;;;;11.16;96.02;100138.38;5035224;28;45375;-72
2022/12/22 07:23:12;;;;;;;;;5.50;5.00;;;;;11.15;95.46;100145.41;5035571;28;45350;-72
2022/12/22 07:25:37;;;;;;;;;6.75;6.50;;;;;11.15;95.73;100148.03;5035969;28;46165;-71
2022/12/22 07:28:03;;;;;;;;;2.75;2.75;;;;;11.08;96.06;100138.75;5036020;28;45490;-71
2022/12/22 07:30:28;;;;;;;;;6.00;6.00;;;;;11.09;95.59;100141.28;5024811;28;45602;-72
2022/12/22 07:32:54;;;;;;;;;14.50;10.25;;;;;11.06;95.92;100136.16;5037108;28;45365;-71
2022/12/22 07:35:19;;;;;;;;;7.00;7.00;;;;;11.14;95.28;100153.41;5036889;28;46445;-71
2022/12/22 07:37:46;;;;;;;;;5.50;5.50;;;;;11.15;95.90;100152.47;5017274;28;45490;-72
2022/12/22 07:40:12;;;;;;;;;7.25;7.00;;;;;11.16;94.70;100169.97;5024621;28;45341;-71
2022/12/22 07:42:46;;;;;;;;;6.50;5.00;;;;;11.15;95.31;100163.84;5035577;28;45720;-71
2022/12/22 07:45:16;;;;;;;;;7.00;7.00;;;;;11.16;95.14;100165.53;5018065;28;46503;-71
2022/12/22 07:47:42;;;;;;;;;6.00;6.00;;;;;11.17;94.95;100163.78;5036417;28;45519;-70
2022/12/22 07:50:27;;;;;;;;;2.25;1.00;;;;;11.20;94.63;100171.53;5033763;28;45297;-70
2022/12/22 07:52:52;;;;;;;;;10.00;9.25;;;;;11.19;94.56;100175.91;5034173;28;45479;-71
2022/12/22 07:55:18;;;;;;;;;14.25;13.50;;;;;11.17;94.10;100166.41;5016751;28;46882;-73
2022/12/22 07:57:44;;;;;;;;;13.00;7.75;;;;;11.19;93.57;100167.19;5034222;28;45428;-73
2022/12/22 08:00:10;;;;;;;;;8.50;5.25;;;;;11.22;93.39;100178.41;5033417;28;45986;-72
2022/12/22 08:02:36;;;;;;;;;9.75;9.00;;;;;11.23;93.80;100166.94;5016764;28;45368;-71
2022/12/22 08:05:01;;;;;;;;;6.75;6.00;;;;;11.25;93.14;100165.06;5023136;28;46121;-71
2022/12/22 08:07:26;;;;;;;;;11.25;10.50;;;;;11.27;93.08;100174.69;5030476;28;45310;-69
2022/12/22 08:09:52;;;;;;;;;10.00;9.75;;;;;11.29;92.62;100178.97;5042473;28;45352;-69
2022/12/22 08:12:17;;;;;;;;;10.00;8.75;;;;;11.29;92.30;100183.34;5026041;28;45480;-71
2022/12/22 08:14:44;;;;;;;;;8.50;8.00;;;;;11.34;92.63;100181.34;5041426;28;45308;-71
2022/12/22 08:17:11;;;;;;;;;15.00;11.00;;;;;11.33;91.91;100180.50;5037964;28;45272;-74
2022/12/22 08:19:36;;;;;;;;;17.50;16.75;;;;;11.38;92.19;100188.16;5036935;28;45384;-75
2022/12/22 08:22:02;;;;;;;;;11.75;10.50;;;;;11.40;91.54;100194.22;5034827;28;45563;-70
2022/12/22 08:24:28;;;;;;;;;14.75;12.25;;;;;11.32;91.62;100189.34;5051367;28;45871;-74
2022/12/22 08:26:58;;;;;;;;;9.75;9.25;;;;;11.45;91.37;100202.72;5027271;28;45797;-73
2022/12/22 08:29:29;;;;;;;;;9.75;9.00;;;;;11.46;91.43;100190.44;5026234;28;45790;-72
2022/12/22 08:31:54;;;;;;;;;12.00;12.00;;;;;11.49;90.92;100211.34;5017463;28;45579;-76
2022/12/22 08:34:20;;;;;;;;;12.00;11.00;;;;;11.51;90.97;100207.69;5025238;28;45609;-76
2022/12/22 08:36:49;;;;;;;;;14.50;13.00;;;;;11.54;90.23;100212.81;5024489;28;45347;-72
2022/12/22 08:39:17;;;;;;;;;17.75;15.50;;;;;11.55;90.52;100211.03;5035024;28;45372;-75
2022/12/22 08:41:48;;;;;;;;;8.75;8.75;;;;;11.61;89.95;100215.13;5022694;28;45551;-71
2022/12/22 08:44:14;;;;;;;;;19.00;14.00;;;;;11.62;89.87;100208.94;5020216;28;47167;-70
2022/12/22 08:46:39;;;;;;;;;13.75;12.25;;;;;11.63;89.84;100202.72;5045292;28;45281;-73
2022/12/22 08:49:05;;;;;;;;;12.25;11.50;;;;;11.68;89.17;100206.00;5037635;28;45473;-72
2022/12/22 08:51:30;;;;;;;;;18.75;14.50;;;;;11.69;89.21;100200.66;5035563;28;45471;-72
2022/12/22 08:53:55;;;;;;;;;14.50;14.50;;;;;11.69;89.50;100191.91;5034852;28;46010;-69
2022/12/22 08:56:20;;;;;;;;;15.75;12.25;;;;;11.75;89.07;100193.34;5050814;28;45167;-68
2022/12/22 08:58:46;;;;;;;;;14.25;12.75;;;;;11.72;89.24;100194.38;5050050;28;45422;-69
2022/12/22 09:01:20;;;;;;;;;13.25;13.00;;;;;11.80;88.35;100193.97;5041762;28;45313;-69
2022/12/22 09:03:50;;;;;;;;;10.50;10.50;;;;;11.81;88.40;100191.28;5041545;28;45500;-69
2022/12/22 09:06:20;;;;;;;;;16.25;15.00;;;;;11.84;88.55;100193.75;5065617;28;45439;-71
2022/12/22 09:08:46;;;;;;;;;20.25;15.50;;;;;11.87;88.38;100202.44;5025139;28;45267;-70
2022/12/22 09:11:11;;;;;;;;;11.75;11.75;;;;;11.88;88.22;100204.13;5052148;28;45372;-69
2022/12/22 09:13:37;;;;;;;;;15.25;13.25;;;;;11.82;87.80;100187.72;5047794;28;46030;-70
2022/12/22 09:16:07;;;;;;;;;12.00;10.25;;;;;11.86;87.77;100184.91;5069231;27;45307;-72
2022/12/22 09:18:33;;;;;;;;;10.75;10.50;;;;;11.86;87.81;100200.72;5040165;28;45430;-73
2022/12/22 09:20:58;;;;;;;;;17.25;13.25;;;;;11.84;87.95;100203.41;5044183;28;45556;-73
2022/12/22 09:23:24;;;;;;;;;11.25;9.50;;;;;11.86;87.69;100203.38;5047095;28;45302;-74
2022/12/22 09:25:50;;;;;;;;;9.75;9.75;;;;;11.87;87.50;100198.00;5043559;28;45265;-72
2022/12/22 09:28:15;;;;;;;;;13.50;13.50;;;;;11.83;87.42;100196.44;5023559;28;45292;-72
2022/12/22 09:30:40;;;;;;;;;10.25;9.50;;;;;11.90;86.88;100197.00;5055575;28;45246;-72
2022/12/22 09:33:06;;;;;;;;;14.00;14.00;;;;;11.93;86.99;100202.09;5027251;28;47316;-71
2022/12/22 09:35:31;;;;;;;;;14.75;12.50;;;;;11.94;87.17;100193.28;5029697;28;45565;-71
2022/12/22 09:37:57;;;;;;;;;12.00;12.00;;;;;11.97;87.33;100193.09;5051747;28;45203;-72
2022/12/22 09:40:23;;;;;;;;;18.75;13.25;;;;;11.97;86.85;100195.75;5042052;28;45436;-72
2022/12/22 09:42:49;;;;;;;;;14.25;14.00;;;;;12.01;87.10;100202.59;5053907;28;46402;-73
2022/12/22 09:45:18;;;;;;;;;18.50;13.25;;;;;12.05;86.74;100204.13;5046230;28;45491;-72
2022/12/22 09:47:52;;;;;;;;;16.25;14.25;;;;;12.01;86.62;100197.31;5028834;28;45364;-71
2022/12/22 09:50:22;;;;;;;;;4.75;4.75;;;;;12.11;86.47;100217.00;5039871;28;45477;-73
2022/12/22 09:53:00;;;;;;;;;13.25;11.25;;;;;12.16;86.31;100213.25;5054215;28;46005;-75
2022/12/22 09:55:38;;;;;;;;;14.50;13.75;;;;;12.19;86.31;100205.19;5029603;28;45855;-74
2022/12/22 09:58:14;;;;;;;;;12.50;11.75;;;;;12.23;86.03;100217.28;5024853;28;45395;-76
2022/12/22 10:00:39;;;;;;;;;14.50;10.25;;;;;12.19;85.75;100215.72;5016248;28;45289;-77
2022/12/22 10:03:21;;;;;;;;;15.75;14.25;;;;;12.29;85.74;100219.59;5032978;28;48126;-75
2022/12/22 10:05:55;;;;;;;;;12.50;12.00;;;;;12.33;85.37;100217.66;5041471;28;45385;-77
2022/12/22 10:08:36;;;;;;;;;14.25;13.00;;;;;12.35;85.46;100211.34;5056312;28;45392;-76
2022/12/22 10:11:01;;;;;;;;;13.50;13.00;;;;;12.39;85.46;100201.50;5045018;28;45405;-77
2022/12/22 10:13:27;;;;;;;;;12.50;12.25;;;;;12.39;85.34;100202.34;5041095;28;45640;-77
2022/12/22 10:15:53;;;;;;;;;16.00;14.50;;;;;12.45;84.98;100205.56;5042731;28;45315;-74
2022/12/22 10:18:27;;;;;;;;;12.25;10.75;;;;;12.45;84.41;100209.06;5030727;28;45516;-75
2022/12/22 10:21:06;;;;;;;;;15.25;12.25;;;;;12.49;84.54;100212.38;5022871;28;45681;-73
2022/12/22 10:23:37;;;;;;;;;16.75;11.25;;;;;12.51;84.13;100202.59;5039862;28;45796;-69
2022/12/22 10:26:19;;;;;;;;;16.75;15.25;;;;;12.54;84.00;100205.06;5032534;28;45556;-72
2022/12/22 10:29:09;;;;;;;;;12.25;10.75;;;;;12.55;83.62;100204.13;5021935;28;45243;-74
2022/12/22 10:31:38;;;;;;;;;12.00;12.00;;;;;12.57;83.44;100208.41;5057322;28;45407;-75
2022/12/22 10:34:13;;;;;;;;;13.75;12.75;;;;;12.60;83.54;100201.25;5039060;28;46073;-75
2022/12/22 10:36:45;;;;;;;;;17.50;14.00;;;;;12.63;83.26;100201.94;5029938;28;45670;-71
2022/12/22 10:39:19;;;;;;;;;15.75;12.50;;;;;12.68;83.49;100204.31;5036520;28;45421;-70
2022/12/22 10:41:48;;;;;;;;;17.75;15.00;;;;;12.72;83.00;100197.94;5037468;28;45503;-71
2022/12/22 10:44:21;;;;;;;;;11.00;11.00;;;;;12.67;82.52;100186.78;5034343;28;47675;-75
2022/12/22 10:46:52;;;;;;;;;14.75;11.00;;;;;12.80;82.54;100200.16;5037019;28;45558;-72
2022/12/22 10:49:36;;;;;;;;;13.50;10.50;;;;;12.82;82.02;100206.22;5015853;28;45398;-71
2022/12/22 10:52:14;;;;;;;;;12.25;12.00;;;;;12.85;81.94;100198.97;5035878;28;45392;-73
2022/12/22 10:54:41;;;;;;;;;11.50;10.50;;;;;12.88;81.70;100200.59;5036576;28;46069;-70
2022/12/22 10:57:12;;;;;;;;;9.75;9.75;;;;;12.89;81.29;100199.66;5035287;28;45514;-71
2022/12/22 11:00:00;;;;;;;;;15.00;11.00;;;;;12.91;81.33;100189.00;5024496;28;45577;-74
2022/12/22 11:02:32;;;;;;;;;15.25;13.25;;;;;12.94;81.45;100197.59;5020746;28;45547;-71
2022/12/22 11:05:04;;;;;;;;;15.50;11.00;;;;;12.96;81.52;100208.06;5034354;28;45882;-74
2022/12/22 11:07:32;;;;;;;;;12.50;11.50;;;;;12.98;81.21;100196.50;4998563;28;46339;-75
2022/12/22 11:09:58;;;;;;;;;9.50;9.00;;;;;12.87;80.80;100177.78;5035405;28;45260;-71
2022/12/22 11:12:44;;;;;;;;;8.75;8.00;;;;;13.00;80.67;100202.53;5018263;28;45574;-71
2022/12/22 11:15:24;;;;;;;;;19.25;18.50;;;;;13.00;80.86;100188.47;5039020;28;45553;-70
2022/12/22 11:18:05;;;;;;;;;10.50;10.00;;;;;13.02;80.45;100191.03;5039953;28;45316;-71
2022/12/22 11:21:01;;;;;;;;;13.50;12.25;;;;;13.04;80.67;100191.81;5017455;28;45340;-70
2022/12/22 11:23:58;;;;;;;;;10.75;10.75;;;;;13.00;80.29;100191.97;5034423;28;45409;-73
2022/12/22 11:26:44;;;;;;;;;13.00;13.00;;;;;13.07;80.56;100186.34;5035030;28;46192;-73
2022/12/22 11:29:36;;;;;;;;;15.00;13.00;;;;;13.09;80.19;100189.75;5020851;28;46074;-72
2022/12/22 11:32:32;;;;;;;;;9.25;9.25;;;;;13.10;80.29;100183.53;5024922;28;45479;-73
2022/12/22 11:35:12;;;;;;;;;9.50;9.00;;;;;13.13;79.87;100176.25;5036379;28;45187;-81
2022/12/22 11:37:55;;;;;;;;;11.25;10.75;;;;;13.13;79.71;100180.72;5040645;28;46291;-72
2022/12/22 11:40:36;;;;;;;;;12.00;9.75;;;;;12.96;79.48;100145.56;5047224;28;45684;-73
2022/12/22 11:43:16;;;;;;;;;12.00;10.50;;;;;13.17;79.64;100178.72;5057407;28;45308;-78
2022/12/22 11:45:55;;;;;;;;;19.25;15.00;;;;;13.16;79.56;100177.91;5038317;28;45254;-79
2022/12/22 11:48:58;;;;;;;;;15.00;13.00;;;;;13.17;79.26;100173.44;5045300;28;46418;-69
2022/12/22 11:51:50;;;;;;;;;13.75;13.25;;;;;13.18;79.39;100170.72;5053847;28;45523;-70
2022/12/22 11:54:53;;;;;;;;;15.25;14.00;;;;;13.20;79.53;100160.94;5055757;28;45315;-73
2022/12/22 11:57:25;;;;;;;;;15.50;14.50;;;;;13.24;79.15;100161.59;5036923;28;45264;-72
2022/12/22 12:00:15;;;;;;;;;20.25;18.75;;;;;13.25;79.05;100160.66;5054841;28;46329;-71
2022/12/22 12:02:49;;;;;;;;;16.50;15.50;;;;;13.29;79.19;100154.28;5055126;28;45246;-73
2022/12/22 12:05:35;;;;;;;;;14.25;13.75;;;;;13.33;79.12;100147.88;5037158;28;45277;-73
2022/12/22 12:08:28;;;;;;;;;18.75;18.75;;;;;13.37;78.88;100151.16;5055692;28;45475;-71
2022/12/22 12:11:25;;;;;;;;;20.25;18.00;;;;;13.40;79.22;100143.06;5054748;28;47054;-71
2022/12/22 12:14:12;;;;;;;;;14.25;14.25;;;;;13.43;78.63;100145.56;5046051;28;45332;-74
2022/12/22 12:17:01;;;;;;;;;17.00;16.25;;;;;13.46;78.51;100148.00;5056625;28;45259;-73
2022/12/22 12:19:53;;;;;;;;;12.50;12.50;;;;;13.46;78.23;100140.09;5055572;28;45824;-71
2022/12/22 12:22:21;;;;;;;;;17.25;17.25;;;;;13.46;78.24;100142.72;5054989;28;45465;-73
2022/12/22 12:25:20;;;;;;;;;14.00;12.75;;;;;13.47;78.30;100131.22;5054547;28;45395;-74
2022/12/22 12:28:10;;;;;;;;;22.50;17.50;;;;;13.43;78.29;100124.41;5055756;28;45423;-72
2022/12/22 12:30:50;;;;;;;;;17.00;14.75;;;;;13.48;78.40;100119.72;5055265;28;45471;-72
2022/12/22 12:33:27;;;;;;;;;16.50;16.50;;;;;13.53;78.24;100128.22;5054093;28;47865;-71
2022/12/22 12:36:23;;;;;;;;;14.50;13.00;;;;;13.52;78.26;100123.88;5055131;28;45307;-71
2022/12/22 12:38:57;;;;;;;;;9.00;8.75;;;;;13.50;78.04;100107.25;5055073;28;45422;-71
2022/12/22 12:41:32;;;;;;;;;8.75;8.75;;;;;13.47;77.99;100101.31;5055517;28;45205;-74
2022/12/22 12:43:59;;;;;;;;;19.50;19.00;;;;;13.38;78.31;100092.97;5058174;28;45526;-71
2022/12/22 12:46:53;;;;;;;;;18.00;14.75;;;;;13.44;78.24;100100.56;5040398;28;45541;-72
2022/12/22 12:49:34;;;;;;;;;12.75;11.75;;;;;13.39;78.30;100097.31;5040339;28;45467;-71
2022/12/22 12:52:06;;;;;;;;;11.75;11.00;;;;;13.38;78.08;100092.13;5058282;28;45490;-74
2022/12/22 12:54:32;;;;;;;;;22.00;17.00;;;;;13.35;78.33;100097.56;5058156;28;45527;-73
2022/12/22 12:56:59;;;;;;;;;12.00;12.00;;;;;13.35;78.59;100082.59;5058218;28;45382;-72
2022/12/22 12:59:39;;;;;;;;;12.50;12.50;;;;;13.33;78.65;100080.97;5040425;28;45408;-74
2022/12/22 13:02:26;;;;;;;;;12.50;9.75;;;;;13.32;78.57;100071.34;5040559;28;45374;-75
2022/12/22 13:05:10;;;;;;;;;14.25;11.50;;;;;13.30;78.77;100072.28;5059711;28;46351;-77
2022/12/22 13:08:08;;;;;;;;;15.75;13.75;;;;;13.30;79.37;100071.47;5058735;28;45437;-73
2022/12/22 13:10:38;;;;;;;;;12.50;12.50;;;;;13.24;79.70;100069.16;5059697;28;45324;-74
2022/12/22 13:13:05;;;;;;;;;16.25;16.25;;;;;13.23;80.36;100073.59;5059990;28;45308;-74
2022/12/22 13:15:38;;;;;;;;;17.00;14.25;;;;;13.20;80.96;100072.91;5061728;28;46510;-73
2022/12/22 13:18:29;;;;;;;;;20.75;18.75;;;;;13.17;81.47;100059.91;5060008;28;45486;-71
2022/12/22 13:21:01;;;;;;;;;13.50;11.50;;;;;13.11;81.62;100066.41;5057300;28;45411;-72
2022/12/22 13:24:05;;;;;;;;;11.00;10.75;;;;;13.03;82.07;100055.44;5058013;28;45486;-74
2022/12/22 13:26:34;;;;;;;;;16.25;16.00;;;;;12.88;82.42;100041.34;4956776;28;46193;-74
2022/12/22 13:29:08;;;;;;;;;16.50;13.75;;;;;12.86;83.08;100047.56;4957018;28;45322;-72
2022/12/22 13:31:40;;;;;;;;;17.25;14.00;;;;;12.86;83.61;100049.38;4956753;28;45414;-73
2022/12/22 13:34:21;;;;;;;;;16.25;15.00;;;;;12.80;83.92;100045.28;4984781;28;45858;-70
2022/12/22 13:36:49;;;;;;;;;11.25;10.50;;;;;12.78;84.22;100043.69;5038772;28;46895;-72
2022/12/22 13:39:15;;;;;;;;;19.25;18.75;;;;;12.70;84.39;100031.75;5057076;28;45351;-72
2022/12/22 13:41:43;;;;;;;;;12.50;12.50;;;;;12.70;85.27;100029.13;5038689;28;45300;-72
2022/12/22 13:44:19;;;;;;;;;14.50;13.25;;;;;12.69;85.19;100024.78;5057862;28;45591;-71
2022/12/22 13:46:45;;;;;;;;;11.50;10.50;;;;;12.56;84.92;100000.06;5057092;28;46216;-72
2022/12/22 13:49:18;;;;;;;;;13.75;13.75;;;;;12.67;85.89;100018.75;5038833;28;45235;-70
2022/12/22 13:51:48;;;;;;;;;18.50;17.75;;;;;12.64;85.63;100018.09;5039276;28;45213;-72
2022/12/22 13:54:22;;;;;;;;;16.00;14.25;;;;;12.65;85.82;100015.34;5057477;28;45416;-72
2022/12/22 13:56:51;;;;;;;;;17.25;15.25;;;;;12.50;86.38;99985.44;5057234;28;45524;-71
2022/12/22 13:59:28;;;;;;;;;13.75;12.75;;;;;12.68;86.19;100020.44;5057507;28;45354;-72
2022/12/22 14:02:14;;;;;;;;;14.00;14.00;;;;;12.64;86.43;100016.28;5058152;28;45344;-71
2022/12/22 14:04:41;;;;;;;;;15.25;12.75;;;;;12.60;86.45;100003.38;5057107;28;45372;-74
2022/12/22 14:07:19;;;;;;;;;13.00;12.25;;;;;12.62;86.89;100006.78;5056570;28;45352;-71
2022/12/22 14:09:47;;;;;;;;;15.00;15.00;;;;;12.59;86.83;100005.16;5056539;28;45340;-72
2022/12/22 14:12:28;;;;;;;;;11.50;9.50;;;;;12.56;87.32;99994.78;5039047;28;45300;-73
2022/12/22 14:14:57;;;;;;;;;9.25;9.00;;;;;12.53;87.38;99998.47;5057541;28;45368;-71
2022/12/22 14:17:37;;;;;;;;;11.50;9.00;;;;;12.49;87.85;99989.03;5056111;28;46447;-71
2022/12/22 14:20:18;;;;;;;;;13.00;12.50;;;;;12.48;87.75;99983.81;5056072;28;45385;-73
2022/12/22 14:22:52;;;;;;;;;10.50;10.50;;;;;12.45;88.29;99984.88;5057072;28;45482;-74
2022/12/22 14:25:55;;;;;;;;;12.00;10.75;;;;;12.40;88.28;99987.75;5021599;28;45370;-73
2022/12/22 14:28:31;;;;;;;;;22.75;21.25;;;;;12.37;88.69;99976.53;4954740;28;46125;-72
2022/12/22 14:30:59;;;;;;;;;16.75;16.75;;;;;12.36;89.17;99974.84;5028251;28;45457;-75
2022/12/22 14:33:29;;;;;;;;;7.25;7.25;;;;;12.29;89.42;99966.41;5057058;28;45463;-73
2022/12/22 14:36:17;;;;;;;;;9.25;9.25;;;;;12.32;89.30;99965.41;5057131;28;45470;-73
2022/12/22 14:38:48;;;;;;;;;12.25;12.00;;;;;12.29;90.08;99966.41;5056105;28;46374;-73
2022/12/22 14:44:12;;;;;;;;;10.75;10.75;;;;;12.26;90.23;99964.81;5056356;28;45272;-71
2022/12/22 14:46:39;;;;;;;;;12.00;11.25;;;;;12.25;90.88;99949.94;5042780;28;45268;-73
2022/12/22 14:49:10;;;;;;;;;11.25;9.25;;;;;12.19;91.06;99934.44;5037529;28;46401;-72
2022/12/22 14:51:35;;;;;;;;;12.25;12.25;;;;;12.22;91.15;99931.66;5037522;28;45401;-72
2022/12/22 14:54:04;;;;;;;;;10.00;8.75;;;;;12.22;91.43;99923.75;5037383;28;45360;-72
2022/12/22 14:56:29;;;;;;;;;12.75;12.75;;;;;12.25;91.50;99909.53;5037600;28;45474;-75
2022/12/22 14:59:22;;;;;;;;;13.75;12.00;;;;;12.30;91.63;99904.00;5037339;28;45738;-73
2022/12/22 15:02:20;;;;;;;;;12.00;12.00;;;;;12.30;91.88;99896.91;5039732;28;45456;-71
2022/12/22 15:04:46;;;;;;;;;18.25;17.00;;;;;12.20;91.64;99874.66;5021182;28;45371;-74
2022/12/22 15:07:19;;;;;;;;;12.75;11.75;;;;;12.33;91.77;99888.81;5019891;28;45630;-74
2022/12/22 15:09:44;;;;;;;;;8.75;8.75;;;;;12.27;91.58;99870.72;5038144;28;46055;-73
2022/12/22 15:12:13;;;;;;;;;10.00;10.00;;;;;12.27;91.78;99868.97;5037985;28;45236;-75
2022/12/22 15:14:39;;;;;;;;;10.25;10.25;;;;;12.33;91.65;99875.63;5037374;28;44920;-72
2022/12/22 15:17:14;;;;;;;;;9.75;9.75;;;;;12.14;92.04;99836.31;5037249;28;45334;-73